sensor_id;sensor_type;location;lat;lon;timestamp;P1;durP1;ratioP1;P2;durP2;ratioP2
26223;SDS011;14820;48.682;8.890;2022-11-15T00:01:53;7.53;;;2.70;;
26223;SDS011;14820;48.682;8.890;2022-11-15T00:04:19;6.13;;;3.00;;
26223;SDS011;14820;48.682;8.890;2022-11-15T00:06:44;7.25;;;2.63;;
26223;SDS011;14820;48.682;8.890;2022-11-15T00:09:10;6.03;;;2.70;;
26223;SDS011;14820;48.682;8.890;2022-11-15T00:11:35;4.28;;;2.63;;
26223;SDS011;14820;48.682;8.890;2022-11-15T00:14:01;5.13;;;2.97;;
26223;SDS011;14820;48.682;8.890;2022-11-15T00:16:27;3.80;;;2.67;;
26223;SDS011;14820;48.682;8.890;2022-11-15T00:18:53;6.85;;;3.42;;
26223;SDS011;14820;48.682;8.890;2022-11-15T00:21:19;5.57;;;3.03;;
26223;SDS011;14820;48.682;8.890;2022-11-15T00:23:44;9.05;;;3.80;;
26223;SDS011;14820;48.682;8.890;2022-11-15T00:26:11;7.80;;;4.32;;
26223;SDS011;14820;48.682;8.890;2022-11-15T00:28:39;8.32;;;4.35;;
26223;SDS011;14820;48.682;8.890;2022-11-15T00:31:06;12.30;;;5.20;;
26223;SDS011;14820;48.682;8.890;2022-11-15T00:33:33;11.55;;;4.72;;
26223;SDS011;14820;48.682;8.890;2022-11-15T00:36:02;10.77;;;4.80;;
26223;SDS011;14820;48.682;8.890;2022-11-15T00:38:36;6.78;;;3.88;;
26223;SDS011;14820;48.682;8.890;2022-11-15T00:41:03;8.30;;;4.20;;
26223;SDS011;14820;48.682;8.890;2022-11-15T00:43:30;6.72;;;3.45;;
26223;SDS011;14820;48.682;8.890;2022-11-15T00:45:56;6.07;;;3.30;;
26223;SDS011;14820;48.682;8.890;2022-11-15T00:48:21;8.32;;;4.05;;
26223;SDS011;14820;48.682;8.890;2022-11-15T00:50:48;9.45;;;5.63;;
26223;SDS011;14820;48.682;8.890;2022-11-15T00:53:14;10.35;;;5.53;;
26223;SDS011;14820;48.682;8.890;2022-11-15T00:55:40;11.63;;;5.90;;
26223;SDS011;14820;48.682;8.890;2022-11-15T00:58:06;8.05;;;4.85;;
26223;SDS011;14820;48.682;8.890;2022-11-15T01:00:31;8.30;;;4.68;;
26223;SDS011;14820;48.682;8.890;2022-11-15T01:02:57;8.52;;;4.47;;
26223;SDS011;14820;48.682;8.890;2022-11-15T01:05:23;7.53;;;4.55;;
26223;SDS011;14820;48.682;8.890;2022-11-15T01:07:52;7.10;;;4.20;;
26223;SDS011;14820;48.682;8.890;2022-11-15T01:10:19;6.93;;;4.00;;
26223;SDS011;14820;48.682;8.890;2022-11-15T01:12:44;9.35;;;4.30;;
26223;SDS011;14820;48.682;8.890;2022-11-15T01:15:10;6.35;;;3.75;;
26223;SDS011;14820;48.682;8.890;2022-11-15T01:17:35;7.22;;;4.10;;
26223;SDS011;14820;48.682;8.890;2022-11-15T01:20:02;8.40;;;3.80;;
26223;SDS011;14820;48.682;8.890;2022-11-15T01:22:28;8.43;;;3.78;;
26223;SDS011;14820;48.682;8.890;2022-11-15T01:24:54;5.97;;;3.30;;
26223;SDS011;14820;48.682;8.890;2022-11-15T01:27:20;5.47;;;3.53;;
26223;SDS011;14820;48.682;8.890;2022-11-15T01:29:45;6.22;;;3.25;;
26223;SDS011;14820;48.682;8.890;2022-11-15T01:32:11;5.20;;;3.10;;
26223;SDS011;14820;48.682;8.890;2022-11-15T01:34:37;6.97;;;3.42;;
26223;SDS011;14820;48.682;8.890;2022-11-15T01:37:02;4.70;;;3.60;;
26223;SDS011;14820;48.682;8.890;2022-11-15T01:39:28;7.53;;;3.22;;
26223;SDS011;14820;48.682;8.890;2022-11-15T01:41:54;5.93;;;3.38;;
26223;SDS011;14820;48.682;8.890;2022-11-15T01:47:08;11.15;;;3.42;;
26223;SDS011;14820;48.682;8.890;2022-11-15T01:49:46;7.50;;;3.47;;
26223;SDS011;14820;48.682;8.890;2022-11-15T01:52:27;7.82;;;3.38;;
26223;SDS011;14820;48.682;8.890;2022-11-15T01:57:37;5.47;;;3.53;;
26223;SDS011;14820;48.682;8.890;2022-11-15T02:00:05;7.05;;;3.97;;
26223;SDS011;14820;48.682;8.890;2022-11-15T02:02:32;6.82;;;3.38;;
26223;SDS011;14820;48.682;8.890;2022-11-15T02:04:59;9.27;;;3.40;;
26223;SDS011;14820;48.682;8.890;2022-11-15T02:07:25;5.68;;;3.22;;
26223;SDS011;14820;48.682;8.890;2022-11-15T02:09:51;6.63;;;3.75;;
26223;SDS011;14820;48.682;8.890;2022-11-15T02:12:18;8.18;;;3.97;;
26223;SDS011;14820;48.682;8.890;2022-11-15T02:14:47;5.55;;;3.63;;
26223;SDS011;14820;48.682;8.890;2022-11-15T02:20:14;5.78;;;3.53;;
26223;SDS011;14820;48.682;8.890;2022-11-15T02:26:21;6.85;;;3.60;;
26223;SDS011;14820;48.682;8.890;2022-11-15T02:31:22;4.90;;;3.50;;
26223;SDS011;14820;48.682;8.890;2022-11-15T02:37:03;4.47;;;3.20;;
26223;SDS011;14820;48.682;8.890;2022-11-15T02:42:19;8.52;;;3.20;;
26223;SDS011;14820;48.682;8.890;2022-11-15T02:45:12;5.00;;;3.17;;
26223;SDS011;14820;48.682;8.890;2022-11-15T02:47:43;5.82;;;3.40;;
26223;SDS011;14820;48.682;8.890;2022-11-15T02:50:16;7.05;;;3.78;;
26223;SDS011;14820;48.682;8.890;2022-11-15T02:52:50;7.65;;;3.92;;
26223;SDS011;14820;48.682;8.890;2022-11-15T02:55:26;5.35;;;3.58;;
26223;SDS011;14820;48.682;8.890;2022-11-15T02:57:59;5.53;;;3.03;;
26223;SDS011;14820;48.682;8.890;2022-11-15T03:00:34;9.85;;;3.45;;
26223;SDS011;14820;48.682;8.890;2022-11-15T03:06:14;7.75;;;3.67;;
26223;SDS011;14820;48.682;8.890;2022-11-15T03:11:29;4.22;;;3.00;;
26223;SDS011;14820;48.682;8.890;2022-11-15T03:14:05;4.93;;;3.20;;
26223;SDS011;14820;48.682;8.890;2022-11-15T03:19:48;5.38;;;3.30;;
26223;SDS011;14820;48.682;8.890;2022-11-15T03:22:17;6.78;;;3.88;;
26223;SDS011;14820;48.682;8.890;2022-11-15T03:24:46;8.40;;;3.83;;
26223;SDS011;14820;48.682;8.890;2022-11-15T03:27:17;6.05;;;3.45;;
26223;SDS011;14820;48.682;8.890;2022-11-15T03:29:49;6.32;;;3.85;;
26223;SDS011;14820;48.682;8.890;2022-11-15T03:32:21;7.88;;;3.80;;
26223;SDS011;14820;48.682;8.890;2022-11-15T03:34:53;6.53;;;3.58;;
26223;SDS011;14820;48.682;8.890;2022-11-15T03:37:45;9.35;;;4.00;;
26223;SDS011;14820;48.682;8.890;2022-11-15T03:40:24;6.13;;;3.70;;
26223;SDS011;14820;48.682;8.890;2022-11-15T03:43:02;6.18;;;3.63;;
26223;SDS011;14820;48.682;8.890;2022-11-15T03:45:44;6.53;;;3.60;;
26223;SDS011;14820;48.682;8.890;2022-11-15T03:48:17;6.10;;;3.58;;
26223;SDS011;14820;48.682;8.890;2022-11-15T03:50:46;7.68;;;4.07;;
26223;SDS011;14820;48.682;8.890;2022-11-15T03:53:13;7.85;;;3.70;;
26223;SDS011;14820;48.682;8.890;2022-11-15T03:55:39;6.32;;;3.80;;
26223;SDS011;14820;48.682;8.890;2022-11-15T03:58:05;5.47;;;3.15;;
26223;SDS011;14820;48.682;8.890;2022-11-15T04:00:31;6.60;;;3.53;;
26223;SDS011;14820;48.682;8.890;2022-11-15T04:02:57;4.18;;;3.20;;
26223;SDS011;14820;48.682;8.890;2022-11-15T04:05:22;6.65;;;3.40;;
26223;SDS011;14820;48.682;8.890;2022-11-15T04:07:49;8.02;;;3.70;;
26223;SDS011;14820;48.682;8.890;2022-11-15T04:10:14;5.78;;;3.60;;
26223;SDS011;14820;48.682;8.890;2022-11-15T04:12:41;8.07;;;4.00;;
26223;SDS011;14820;48.682;8.890;2022-11-15T04:15:09;5.50;;;3.50;;
26223;SDS011;14820;48.682;8.890;2022-11-15T04:17:44;7.25;;;3.10;;
26223;SDS011;14820;48.682;8.890;2022-11-15T04:20:24;7.93;;;3.65;;
26223;SDS011;14820;48.682;8.890;2022-11-15T04:23:10;5.15;;;3.28;;
26223;SDS011;14820;48.682;8.890;2022-11-15T04:25:58;6.47;;;3.47;;
26223;SDS011;14820;48.682;8.890;2022-11-15T04:28:26;5.50;;;3.22;;
26223;SDS011;14820;48.682;8.890;2022-11-15T04:30:52;5.53;;;3.42;;
26223;SDS011;14820;48.682;8.890;2022-11-15T04:33:17;4.78;;;2.97;;
26223;SDS011;14820;48.682;8.890;2022-11-15T04:35:43;5.30;;;3.05;;
26223;SDS011;14820;48.682;8.890;2022-11-15T04:38:29;5.93;;;2.85;;
26223;SDS011;14820;48.682;8.890;2022-11-15T04:40:55;5.60;;;3.10;;
26223;SDS011;14820;48.682;8.890;2022-11-15T04:43:20;4.60;;;2.90;;
26223;SDS011;14820;48.682;8.890;2022-11-15T04:45:46;7.47;;;3.28;;
26223;SDS011;14820;48.682;8.890;2022-11-15T04:48:12;8.70;;;3.10;;
26223;SDS011;14820;48.682;8.890;2022-11-15T04:50:37;7.60;;;3.88;;
26223;SDS011;14820;48.682;8.890;2022-11-15T04:53:03;6.10;;;3.97;;
26223;SDS011;14820;48.682;8.890;2022-11-15T04:55:28;5.85;;;3.50;;
26223;SDS011;14820;48.682;8.890;2022-11-15T04:58:00;4.65;;;3.40;;
26223;SDS011;14820;48.682;8.890;2022-11-15T05:00:27;6.35;;;3.30;;
26223;SDS011;14820;48.682;8.890;2022-11-15T05:02:54;7.32;;;3.53;;
26223;SDS011;14820;48.682;8.890;2022-11-15T05:05:39;7.20;;;3.40;;
26223;SDS011;14820;48.682;8.890;2022-11-15T05:08:04;7.03;;;3.60;;
26223;SDS011;14820;48.682;8.890;2022-11-15T05:10:30;5.90;;;3.58;;
26223;SDS011;14820;48.682;8.890;2022-11-15T05:12:56;4.93;;;3.20;;
26223;SDS011;14820;48.682;8.890;2022-11-15T05:15:21;6.22;;;3.85;;
26223;SDS011;14820;48.682;8.890;2022-11-15T05:17:47;6.75;;;3.70;;
26223;SDS011;14820;48.682;8.890;2022-11-15T05:20:13;6.43;;;3.67;;
26223;SDS011;14820;48.682;8.890;2022-11-15T05:22:38;6.60;;;3.60;;
26223;SDS011;14820;48.682;8.890;2022-11-15T05:25:05;5.35;;;3.67;;
26223;SDS011;14820;48.682;8.890;2022-11-15T05:27:32;5.00;;;3.58;;
26223;SDS011;14820;48.682;8.890;2022-11-15T05:29:58;4.97;;;3.60;;
26223;SDS011;14820;48.682;8.890;2022-11-15T05:32:23;5.38;;;3.47;;
26223;SDS011;14820;48.682;8.890;2022-11-15T05:34:50;5.82;;;3.22;;
26223;SDS011;14820;48.682;8.890;2022-11-15T05:37:16;4.57;;;3.00;;
26223;SDS011;14820;48.682;8.890;2022-11-15T05:39:42;7.65;;;3.88;;
26223;SDS011;14820;48.682;8.890;2022-11-15T05:42:09;5.53;;;3.60;;
26223;SDS011;14820;48.682;8.890;2022-11-15T05:44:38;8.23;;;3.90;;
26223;SDS011;14820;48.682;8.890;2022-11-15T05:47:07;8.10;;;3.65;;
26223;SDS011;14820;48.682;8.890;2022-11-15T05:49:37;5.55;;;3.65;;
26223;SDS011;14820;48.682;8.890;2022-11-15T05:52:06;6.03;;;3.90;;
26223;SDS011;14820;48.682;8.890;2022-11-15T05:54:34;8.60;;;4.05;;
26223;SDS011;14820;48.682;8.890;2022-11-15T05:57:01;9.05;;;4.25;;
26223;SDS011;14820;48.682;8.890;2022-11-15T05:59:30;9.05;;;4.57;;
26223;SDS011;14820;48.682;8.890;2022-11-15T06:01:57;6.78;;;4.43;;
26223;SDS011;14820;48.682;8.890;2022-11-15T06:04:22;6.25;;;4.13;;
26223;SDS011;14820;48.682;8.890;2022-11-15T06:06:48;6.43;;;4.30;;
26223;SDS011;14820;48.682;8.890;2022-11-15T06:09:14;7.05;;;4.05;;
26223;SDS011;14820;48.682;8.890;2022-11-15T06:11:39;7.05;;;4.15;;
26223;SDS011;14820;48.682;8.890;2022-11-15T06:14:05;8.35;;;4.72;;
26223;SDS011;14820;48.682;8.890;2022-11-15T06:16:31;7.75;;;4.88;;
26223;SDS011;14820;48.682;8.890;2022-11-15T06:18:56;6.93;;;4.78;;
26223;SDS011;14820;48.682;8.890;2022-11-15T06:21:22;9.15;;;4.40;;
26223;SDS011;14820;48.682;8.890;2022-11-15T06:23:48;10.82;;;4.53;;
26223;SDS011;14820;48.682;8.890;2022-11-15T06:26:14;7.07;;;4.60;;
26223;SDS011;14820;48.682;8.890;2022-11-15T06:28:39;5.78;;;3.85;;
26223;SDS011;14820;48.682;8.890;2022-11-15T06:31:05;6.32;;;4.00;;
26223;SDS011;14820;48.682;8.890;2022-11-15T06:33:33;5.78;;;3.80;;
26223;SDS011;14820;48.682;8.890;2022-11-15T06:36:05;5.57;;;3.70;;
26223;SDS011;14820;48.682;8.890;2022-11-15T06:38:33;5.60;;;3.63;;
26223;SDS011;14820;48.682;8.890;2022-11-15T06:41:02;4.45;;;3.25;;
26223;SDS011;14820;48.682;8.890;2022-11-15T06:43:29;4.68;;;3.13;;
26223;SDS011;14820;48.682;8.890;2022-11-15T06:45:55;7.13;;;4.47;;
26223;SDS011;14820;48.682;8.890;2022-11-15T06:48:22;8.13;;;5.03;;
26223;SDS011;14820;48.682;8.890;2022-11-15T06:50:54;12.88;;;5.45;;
26223;SDS011;14820;48.682;8.890;2022-11-15T06:53:22;9.32;;;5.30;;
26223;SDS011;14820;48.682;8.890;2022-11-15T06:55:48;10.73;;;5.82;;
26223;SDS011;14820;48.682;8.890;2022-11-15T06:58:14;11.02;;;6.20;;
26223;SDS011;14820;48.682;8.890;2022-11-15T07:00:40;12.80;;;6.28;;
26223;SDS011;14820;48.682;8.890;2022-11-15T07:03:06;12.65;;;7.78;;
26223;SDS011;14820;48.682;8.890;2022-11-15T07:05:32;11.93;;;6.47;;
26223;SDS011;14820;48.682;8.890;2022-11-15T07:07:58;9.90;;;5.45;;
26223;SDS011;14820;48.682;8.890;2022-11-15T07:10:24;10.85;;;6.10;;
26223;SDS011;14820;48.682;8.890;2022-11-15T07:12:51;17.58;;;6.82;;
26223;SDS011;14820;48.682;8.890;2022-11-15T07:15:19;9.50;;;6.40;;
26223;SDS011;14820;48.682;8.890;2022-11-15T07:17:46;12.90;;;6.50;;
26223;SDS011;14820;48.682;8.890;2022-11-15T07:20:12;10.52;;;6.40;;
26223;SDS011;14820;48.682;8.890;2022-11-15T07:22:42;12.10;;;5.75;;
26223;SDS011;14820;48.682;8.890;2022-11-15T07:25:08;8.48;;;4.93;;
26223;SDS011;14820;48.682;8.890;2022-11-15T07:27:34;7.35;;;4.57;;
26223;SDS011;14820;48.682;8.890;2022-11-15T07:30:00;6.82;;;4.18;;
26223;SDS011;14820;48.682;8.890;2022-11-15T07:32:26;7.10;;;4.13;;
26223;SDS011;14820;48.682;8.890;2022-11-15T07:34:52;7.28;;;4.55;;
26223;SDS011;14820;48.682;8.890;2022-11-15T07:37:17;6.78;;;4.75;;
26223;SDS011;14820;48.682;8.890;2022-11-15T07:39:43;9.20;;;5.70;;
26223;SDS011;14820;48.682;8.890;2022-11-15T07:42:09;11.10;;;6.20;;
26223;SDS011;14820;48.682;8.890;2022-11-15T07:44:53;10.52;;;7.18;;
26223;SDS011;14820;48.682;8.890;2022-11-15T07:47:19;16.45;;;8.90;;
26223;SDS011;14820;48.682;8.890;2022-11-15T07:49:45;13.25;;;8.15;;
26223;SDS011;14820;48.682;8.890;2022-11-15T07:52:11;13.32;;;7.22;;
26223;SDS011;14820;48.682;8.890;2022-11-15T07:54:37;15.05;;;7.35;;
26223;SDS011;14820;48.682;8.890;2022-11-15T07:57:03;11.63;;;6.70;;
26223;SDS011;14820;48.682;8.890;2022-11-15T07:59:29;8.98;;;6.13;;
26223;SDS011;14820;48.682;8.890;2022-11-15T08:01:54;11.43;;;6.65;;
26223;SDS011;14820;48.682;8.890;2022-11-15T08:04:20;8.15;;;5.13;;
26223;SDS011;14820;48.682;8.890;2022-11-15T08:06:46;9.93;;;5.90;;
26223;SDS011;14820;48.682;8.890;2022-11-15T08:09:11;13.27;;;6.53;;
26223;SDS011;14820;48.682;8.890;2022-11-15T08:11:37;11.77;;;7.95;;
26223;SDS011;14820;48.682;8.890;2022-11-15T08:14:02;12.57;;;7.65;;
26223;SDS011;14820;48.682;8.890;2022-11-15T08:16:28;12.48;;;7.90;;
26223;SDS011;14820;48.682;8.890;2022-11-15T08:18:54;14.57;;;9.15;;
26223;SDS011;14820;48.682;8.890;2022-11-15T08:21:20;19.75;;;9.82;;
26223;SDS011;14820;48.682;8.890;2022-11-15T08:23:46;13.13;;;7.88;;
26223;SDS011;14820;48.682;8.890;2022-11-15T08:26:12;8.93;;;5.22;;
26223;SDS011;14820;48.682;8.890;2022-11-15T08:28:38;9.75;;;4.30;;
26223;SDS011;14820;48.682;8.890;2022-11-15T08:31:04;7.78;;;4.60;;
26223;SDS011;14820;48.682;8.890;2022-11-15T08:33:30;5.82;;;3.67;;
26223;SDS011;14820;48.682;8.890;2022-11-15T08:35:58;5.43;;;3.50;;
26223;SDS011;14820;48.682;8.890;2022-11-15T08:38:24;7.85;;;3.85;;
26223;SDS011;14820;48.682;8.890;2022-11-15T08:40:51;9.15;;;4.00;;
26223;SDS011;14820;48.682;8.890;2022-11-15T08:43:18;7.82;;;3.80;;
26223;SDS011;14820;48.682;8.890;2022-11-15T08:45:44;9.93;;;5.30;;
26223;SDS011;14820;48.682;8.890;2022-11-15T08:48:10;11.07;;;5.32;;
26223;SDS011;14820;48.682;8.890;2022-11-15T08:50:36;10.45;;;4.53;;
26223;SDS011;14820;48.682;8.890;2022-11-15T08:53:05;5.75;;;4.10;;
26223;SDS011;14820;48.682;8.890;2022-11-15T08:55:32;6.57;;;4.32;;
26223;SDS011;14820;48.682;8.890;2022-11-15T08:57:57;8.18;;;4.55;;
26223;SDS011;14820;48.682;8.890;2022-11-15T09:00:23;5.65;;;3.75;;
26223;SDS011;14820;48.682;8.890;2022-11-15T09:02:49;3.35;;;2.70;;
26223;SDS011;14820;48.682;8.890;2022-11-15T09:05:14;5.07;;;2.38;;
26223;SDS011;14820;48.682;8.890;2022-11-15T09:07:40;6.93;;;3.13;;
26223;SDS011;14820;48.682;8.890;2022-11-15T09:10:06;5.75;;;2.83;;
26223;SDS011;14820;48.682;8.890;2022-11-15T09:12:32;6.18;;;2.70;;
26223;SDS011;14820;48.682;8.890;2022-11-15T09:14:57;4.65;;;2.40;;
26223;SDS011;14820;48.682;8.890;2022-11-15T09:17:23;7.10;;;2.70;;
26223;SDS011;14820;48.682;8.890;2022-11-15T09:19:49;4.57;;;2.75;;
26223;SDS011;14820;48.682;8.890;2022-11-15T09:22:14;4.50;;;2.60;;
26223;SDS011;14820;48.682;8.890;2022-11-15T09:24:40;5.95;;;2.67;;
26223;SDS011;14820;48.682;8.890;2022-11-15T09:27:07;4.75;;;2.60;;
26223;SDS011;14820;48.682;8.890;2022-11-15T09:29:32;5.20;;;2.63;;
26223;SDS011;14820;48.682;8.890;2022-11-15T09:31:58;4.28;;;2.40;;
26223;SDS011;14820;48.682;8.890;2022-11-15T09:34:24;5.15;;;2.70;;
26223;SDS011;14820;48.682;8.890;2022-11-15T09:36:50;3.45;;;2.20;;
26223;SDS011;14820;48.682;8.890;2022-11-15T09:39:15;3.20;;;2.38;;
26223;SDS011;14820;48.682;8.890;2022-11-15T09:42:03;4.35;;;2.42;;
26223;SDS011;14820;48.682;8.890;2022-11-15T09:47:33;3.65;;;2.58;;
26223;SDS011;14820;48.682;8.890;2022-11-15T09:50:19;3.28;;;2.22;;
26223;SDS011;14820;48.682;8.890;2022-11-15T09:53:09;3.17;;;2.22;;
26223;SDS011;14820;48.682;8.890;2022-11-15T09:55:51;4.25;;;2.30;;
26223;SDS011;14820;48.682;8.890;2022-11-15T09:58:30;4.57;;;2.42;;
26223;SDS011;14820;48.682;8.890;2022-11-15T10:01:06;3.35;;;2.10;;
26223;SDS011;14820;48.682;8.890;2022-11-15T10:03:38;3.45;;;2.00;;
26223;SDS011;14820;48.682;8.890;2022-11-15T10:06:10;4.15;;;2.38;;
26223;SDS011;14820;48.682;8.890;2022-11-15T10:11:31;4.68;;;2.17;;
26223;SDS011;14820;48.682;8.890;2022-11-15T10:14:00;5.13;;;2.55;;
26223;SDS011;14820;48.682;8.890;2022-11-15T10:19:27;4.65;;;2.50;;
26223;SDS011;14820;48.682;8.890;2022-11-15T10:24:44;6.07;;;2.50;;
26223;SDS011;14820;48.682;8.890;2022-11-15T10:27:11;4.38;;;2.20;;
26223;SDS011;14820;48.682;8.890;2022-11-15T10:29:43;5.57;;;2.30;;
26223;SDS011;14820;48.682;8.890;2022-11-15T10:32:11;6.40;;;2.50;;
26223;SDS011;14820;48.682;8.890;2022-11-15T10:34:37;4.93;;;2.33;;
26223;SDS011;14820;48.682;8.890;2022-11-15T10:37:03;3.72;;;2.20;;
26223;SDS011;14820;48.682;8.890;2022-11-15T10:39:29;3.53;;;2.40;;
26223;SDS011;14820;48.682;8.890;2022-11-15T10:41:54;4.95;;;2.67;;
26223;SDS011;14820;48.682;8.890;2022-11-15T10:44:28;5.35;;;3.70;;
26223;SDS011;14820;48.682;8.890;2022-11-15T10:49:24;5.50;;;3.03;;
26223;SDS011;14820;48.682;8.890;2022-11-15T10:54:36;4.80;;;2.65;;
26223;SDS011;14820;48.682;8.890;2022-11-15T10:59:37;4.63;;;2.70;;
26223;SDS011;14820;48.682;8.890;2022-11-15T11:02:22;5.20;;;2.60;;
26223;SDS011;14820;48.682;8.890;2022-11-15T11:04:54;5.38;;;3.00;;
26223;SDS011;14820;48.682;8.890;2022-11-15T11:07:21;7.70;;;3.05;;
26223;SDS011;14820;48.682;8.890;2022-11-15T11:09:56;4.40;;;3.00;;
26223;SDS011;14820;48.682;8.890;2022-11-15T11:12:27;5.33;;;3.03;;
26223;SDS011;14820;48.682;8.890;2022-11-15T11:14:56;7.68;;;3.20;;
26223;SDS011;14820;48.682;8.890;2022-11-15T11:26:15;8.48;;;4.90;;
26223;SDS011;14820;48.682;8.890;2022-11-15T11:29:20;14.18;;;6.90;;
26223;SDS011;14820;48.682;8.890;2022-11-15T11:34:56;9.13;;;5.72;;
26223;SDS011;14820;48.682;8.890;2022-11-15T11:37:30;7.03;;;4.20;;
26223;SDS011;14820;48.682;8.890;2022-11-15T11:51:22;6.88;;;3.22;;
26223;SDS011;14820;48.682;8.890;2022-11-15T11:53:55;6.70;;;3.53;;
26223;SDS011;14820;48.682;8.890;2022-11-15T11:56:31;4.85;;;3.13;;
26223;SDS011;14820;48.682;8.890;2022-11-15T11:59:07;6.80;;;3.38;;
26223;SDS011;14820;48.682;8.890;2022-11-15T12:01:43;6.80;;;3.42;;
26223;SDS011;14820;48.682;8.890;2022-11-15T12:06:51;4.75;;;3.05;;
26223;SDS011;14820;48.682;8.890;2022-11-15T12:15:10;6.65;;;3.22;;
26223;SDS011;14820;48.682;8.890;2022-11-15T12:17:37;4.43;;;2.67;;
26223;SDS011;14820;48.682;8.890;2022-11-15T12:20:13;5.15;;;3.00;;
26223;SDS011;14820;48.682;8.890;2022-11-15T12:22:46;4.75;;;3.05;;
26223;SDS011;14820;48.682;8.890;2022-11-15T12:25:23;5.15;;;3.00;;
26223;SDS011;14820;48.682;8.890;2022-11-15T12:30:50;6.93;;;3.40;;
26223;SDS011;14820;48.682;8.890;2022-11-15T12:38:57;4.72;;;3.10;;
26223;SDS011;14820;48.682;8.890;2022-11-15T12:41:25;6.00;;;3.40;;
26223;SDS011;14820;48.682;8.890;2022-11-15T12:43:53;5.30;;;3.30;;
26223;SDS011;14820;48.682;8.890;2022-11-15T12:48:56;6.72;;;3.22;;
26223;SDS011;14820;48.682;8.890;2022-11-15T12:59:51;6.25;;;3.13;;
26223;SDS011;14820;48.682;8.890;2022-11-15T13:17:49;5.35;;;3.45;;
26223;SDS011;14820;48.682;8.890;2022-11-15T13:20:28;4.70;;;2.85;;
26223;SDS011;14820;48.682;8.890;2022-11-15T13:23:07;5.65;;;3.20;;
26223;SDS011;14820;48.682;8.890;2022-11-15T13:30:54;5.72;;;3.85;;
26223;SDS011;14820;48.682;8.890;2022-11-15T13:33:23;6.35;;;3.55;;
26223;SDS011;14820;48.682;8.890;2022-11-15T13:35:54;6.32;;;3.10;;
26223;SDS011;14820;48.682;8.890;2022-11-15T13:38:33;6.80;;;3.40;;
26223;SDS011;14820;48.682;8.890;2022-11-15T13:41:10;12.93;;;3.60;;
26223;SDS011;14820;48.682;8.890;2022-11-15T13:43:43;5.05;;;3.80;;
26223;SDS011;14820;48.682;8.890;2022-11-15T13:46:13;5.18;;;3.15;;
26223;SDS011;14820;48.682;8.890;2022-11-15T13:48:52;5.78;;;3.78;;
26223;SDS011;14820;48.682;8.890;2022-11-15T13:53:46;5.97;;;3.30;;
26223;SDS011;14820;48.682;8.890;2022-11-15T13:56:16;5.20;;;3.03;;
26223;SDS011;14820;48.682;8.890;2022-11-15T13:58:44;6.13;;;4.10;;
26223;SDS011;14820;48.682;8.890;2022-11-15T14:01:14;7.07;;;4.20;;
26223;SDS011;14820;48.682;8.890;2022-11-15T14:03:52;4.80;;;3.27;;
26223;SDS011;14820;48.682;8.890;2022-11-15T14:06:23;8.27;;;4.47;;
26223;SDS011;14820;48.682;8.890;2022-11-15T14:11:25;6.55;;;4.13;;
26223;SDS011;14820;48.682;8.890;2022-11-15T14:16:35;8.52;;;4.30;;
26223;SDS011;14820;48.682;8.890;2022-11-15T14:24:34;5.22;;;3.35;;
26223;SDS011;14820;48.682;8.890;2022-11-15T14:27:20;6.68;;;3.55;;
26223;SDS011;14820;48.682;8.890;2022-11-15T14:29:55;7.45;;;3.58;;
26223;SDS011;14820;48.682;8.890;2022-11-15T14:32:22;8.18;;;3.75;;
26223;SDS011;14820;48.682;8.890;2022-11-15T14:34:59;6.05;;;3.08;;
26223;SDS011;14820;48.682;8.890;2022-11-15T14:37:26;6.25;;;2.95;;
26223;SDS011;14820;48.682;8.890;2022-11-15T14:39:54;5.88;;;3.60;;
26223;SDS011;14820;48.682;8.890;2022-11-15T14:42:20;5.57;;;3.22;;
26223;SDS011;14820;48.682;8.890;2022-11-15T14:44:47;12.05;;;5.50;;
26223;SDS011;14820;48.682;8.890;2022-11-15T14:47:13;12.32;;;6.18;;
26223;SDS011;14820;48.682;8.890;2022-11-15T14:49:38;7.32;;;4.75;;
26223;SDS011;14820;48.682;8.890;2022-11-15T14:52:07;6.45;;;4.70;;
26223;SDS011;14820;48.682;8.890;2022-11-15T14:54:47;6.30;;;4.30;;
26223;SDS011;14820;48.682;8.890;2022-11-15T14:57:12;5.57;;;3.83;;
26223;SDS011;14820;48.682;8.890;2022-11-15T14:59:38;7.78;;;5.10;;
26223;SDS011;14820;48.682;8.890;2022-11-15T15:02:08;10.35;;;5.20;;
26223;SDS011;14820;48.682;8.890;2022-11-15T15:04:43;12.65;;;7.90;;
26223;SDS011;14820;48.682;8.890;2022-11-15T15:07:09;23.65;;;12.90;;
26223;SDS011;14820;48.682;8.890;2022-11-15T15:09:34;16.85;;;9.20;;
26223;SDS011;14820;48.682;8.890;2022-11-15T15:12:00;11.07;;;7.10;;
26223;SDS011;14820;48.682;8.890;2022-11-15T15:14:26;8.63;;;6.15;;
26223;SDS011;14820;48.682;8.890;2022-11-15T15:16:51;7.65;;;5.13;;
26223;SDS011;14820;48.682;8.890;2022-11-15T15:19:17;6.72;;;4.20;;
26223;SDS011;14820;48.682;8.890;2022-11-15T15:21:42;6.20;;;3.90;;
26223;SDS011;14820;48.682;8.890;2022-11-15T15:24:13;4.90;;;3.20;;
26223;SDS011;14820;48.682;8.890;2022-11-15T15:26:42;7.53;;;3.30;;
26223;SDS011;14820;48.682;8.890;2022-11-15T15:29:08;5.32;;;3.17;;
26223;SDS011;14820;48.682;8.890;2022-11-15T15:31:34;4.22;;;2.95;;
26223;SDS011;14820;48.682;8.890;2022-11-15T15:34:00;6.45;;;3.10;;
26223;SDS011;14820;48.682;8.890;2022-11-15T15:36:26;10.38;;;4.25;;
26223;SDS011;14820;48.682;8.890;2022-11-15T15:38:51;6.30;;;3.85;;
26223;SDS011;14820;48.682;8.890;2022-11-15T15:41:17;6.00;;;3.72;;
26223;SDS011;14820;48.682;8.890;2022-11-15T15:43:43;5.72;;;3.30;;
26223;SDS011;14820;48.682;8.890;2022-11-15T15:46:12;6.07;;;3.05;;
26223;SDS011;14820;48.682;8.890;2022-11-15T15:48:40;7.15;;;3.40;;
26223;SDS011;14820;48.682;8.890;2022-11-15T15:51:06;6.30;;;3.60;;
26223;SDS011;14820;48.682;8.890;2022-11-15T15:53:32;8.30;;;4.68;;
26223;SDS011;14820;48.682;8.890;2022-11-15T15:55:58;8.00;;;5.00;;
26223;SDS011;14820;48.682;8.890;2022-11-15T15:58:24;5.80;;;3.88;;
26223;SDS011;14820;48.682;8.890;2022-11-15T16:00:50;6.50;;;4.15;;
26223;SDS011;14820;48.682;8.890;2022-11-15T16:03:16;6.13;;;4.10;;
26223;SDS011;14820;48.682;8.890;2022-11-15T16:05:41;7.38;;;4.68;;
26223;SDS011;14820;48.682;8.890;2022-11-15T16:08:20;7.15;;;4.15;;
26223;SDS011;14820;48.682;8.890;2022-11-15T16:10:47;8.18;;;3.33;;
26223;SDS011;14820;48.682;8.890;2022-11-15T16:13:14;9.15;;;4.88;;
26223;SDS011;14820;48.682;8.890;2022-11-15T16:15:39;9.15;;;5.53;;
26223;SDS011;14820;48.682;8.890;2022-11-15T16:18:16;14.43;;;6.57;;
26223;SDS011;14820;48.682;8.890;2022-11-15T16:20:43;17.08;;;9.25;;
26223;SDS011;14820;48.682;8.890;2022-11-15T16:23:12;19.40;;;10.98;;
26223;SDS011;14820;48.682;8.890;2022-11-15T16:25:51;22.92;;;11.05;;
26223;SDS011;14820;48.682;8.890;2022-11-15T16:30:49;9.73;;;6.40;;
26223;SDS011;14820;48.682;8.890;2022-11-15T16:33:24;10.65;;;5.88;;
26223;SDS011;14820;48.682;8.890;2022-11-15T16:35:50;8.10;;;5.00;;
26223;SDS011;14820;48.682;8.890;2022-11-15T16:38:15;6.70;;;4.70;;
26223;SDS011;14820;48.682;8.890;2022-11-15T16:40:42;15.93;;;8.25;;
26223;SDS011;14820;48.682;8.890;2022-11-15T16:43:08;15.10;;;7.50;;
26223;SDS011;14820;48.682;8.890;2022-11-15T16:45:34;9.73;;;5.60;;
26223;SDS011;14820;48.682;8.890;2022-11-15T16:48:00;9.10;;;5.45;;
26223;SDS011;14820;48.682;8.890;2022-11-15T16:50:46;8.77;;;5.65;;
26223;SDS011;14820;48.682;8.890;2022-11-15T16:53:11;12.07;;;6.72;;
26223;SDS011;14820;48.682;8.890;2022-11-15T16:55:37;11.20;;;7.90;;
26223;SDS011;14820;48.682;8.890;2022-11-15T16:58:03;12.50;;;8.48;;
26223;SDS011;14820;48.682;8.890;2022-11-15T17:00:28;13.93;;;8.73;;
26223;SDS011;14820;48.682;8.890;2022-11-15T17:03:02;19.17;;;11.65;;
26223;SDS011;14820;48.682;8.890;2022-11-15T17:05:27;17.63;;;11.45;;
26223;SDS011;14820;48.682;8.890;2022-11-15T17:07:53;26.13;;;15.68;;
26223;SDS011;14820;48.682;8.890;2022-11-15T17:10:20;22.52;;;11.93;;
26223;SDS011;14820;48.682;8.890;2022-11-15T17:12:47;10.73;;;7.07;;